createdAt,value
2023-03-19T00:02:16.173Z,6.68
2023-03-19T00:04:43.504Z,6.90
2023-03-19T00:07:10.232Z,7.00
2023-03-19T00:09:36.881Z,6.75
2023-03-19T00:12:03.605Z,6.00
2023-03-19T00:14:30.938Z,5.68
2023-03-19T00:16:57.565Z,5.88
2023-03-19T00:19:24.147Z,6.70
2023-03-19T00:21:51.242Z,6.75
2023-03-19T00:24:17.790Z,7.00
2023-03-19T00:26:44.419Z,7.72
2023-03-19T00:29:11.184Z,6.20
2023-03-19T00:31:37.719Z,7.68
2023-03-19T00:34:04.379Z,7.95
2023-03-19T00:36:31.132Z,8.18
2023-03-19T00:38:57.960Z,7.82
2023-03-19T00:41:24.830Z,7.65
2023-03-19T00:43:55.982Z,8.13
2023-03-19T00:46:23.949Z,7.45
2023-03-19T00:48:53.913Z,6.05
2023-03-19T00:51:20.637Z,6.70
2023-03-19T00:53:47.174Z,6.78
2023-03-19T00:56:15.532Z,6.10
2023-03-19T00:58:42.195Z,6.15
2023-03-19T01:01:09.620Z,5.75
2023-03-19T01:03:36.768Z,6.45
2023-03-19T01:06:04.883Z,6.72
2023-03-19T01:08:31.919Z,6.75
2023-03-19T01:11:08.535Z,6.22
2023-03-19T01:13:35.321Z,6.60
2023-03-19T01:16:02.419Z,5.95
2023-03-19T01:18:29.268Z,5.40
2023-03-19T01:20:56.076Z,5.53
2023-03-19T01:23:22.755Z,5.32
2023-03-19T01:25:49.298Z,5.28
2023-03-19T01:28:15.944Z,5.72
2023-03-19T01:30:42.460Z,5.85
2023-03-19T01:33:09.039Z,4.95
2023-03-19T01:35:36.073Z,5.47
2023-03-19T01:38:02.641Z,4.05
2023-03-19T01:40:29.608Z,4.05
2023-03-19T01:42:57.419Z,3.92
2023-03-19T01:45:35.033Z,3.00
2023-03-19T01:48:02.344Z,2.78
2023-03-19T01:50:37.957Z,2.05
2023-03-19T01:53:04.639Z,2.08
2023-03-19T01:55:31.400Z,1.15
2023-03-19T01:57:57.999Z,1.52
2023-03-19T02:00:24.552Z,1.73
2023-03-19T02:02:55.411Z,1.73
2023-03-19T02:05:25.979Z,1.13
2023-03-19T02:07:56.645Z,1.10
2023-03-19T02:10:23.720Z,1.38
2023-03-19T02:12:50.347Z,1.20
2023-03-19T02:15:16.995Z,0.80
2023-03-19T02:17:43.964Z,1.92
2023-03-19T02:20:25.510Z,1.00
2023-03-19T02:23:10.393Z,0.70
2023-03-19T02:28:23.546Z,0.80
2023-03-19T02:30:50.199Z,1.00
2023-03-19T02:33:18.940Z,0.90
2023-03-19T02:35:49.274Z,0.68
2023-03-19T02:38:16.318Z,0.75
2023-03-19T02:40:52.546Z,1.05
2023-03-19T02:43:21.809Z,0.85
2023-03-19T02:45:48.703Z,0.93
2023-03-19T02:48:15.464Z,1.00
2023-03-19T02:50:42.146Z,1.08
2023-03-19T02:53:08.704Z,1.20
2023-03-19T02:55:35.550Z,1.15
2023-03-19T02:58:02.672Z,1.20
2023-03-19T03:00:29.376Z,1.00
2023-03-19T03:02:58.015Z,0.80
2023-03-19T03:05:24.622Z,0.85
2023-03-19T03:07:51.165Z,1.30
2023-03-19T03:10:18.150Z,1.23
2023-03-19T03:12:44.710Z,0.90
2023-03-19T03:15:12.634Z,1.00
2023-03-19T03:17:41.308Z,1.23
2023-03-19T03:20:11.898Z,1.00
2023-03-19T03:22:39.396Z,1.10
2023-03-19T03:25:06.953Z,0.80
2023-03-19T03:27:33.530Z,0.90
2023-03-19T03:30:00.071Z,0.50
2023-03-19T03:32:26.662Z,0.60
2023-03-19T03:34:53.192Z,0.80
2023-03-19T03:37:19.810Z,0.45
2023-03-19T03:39:46.592Z,1.05
2023-03-19T03:42:13.488Z,1.05
2023-03-19T03:44:40.027Z,0.75
2023-03-19T03:47:06.783Z,0.80
2023-03-19T03:49:33.561Z,0.85
2023-03-19T03:52:00.499Z,0.70
2023-03-19T03:54:27.082Z,0.50
2023-03-19T03:56:53.565Z,1.10
2023-03-19T03:59:20.592Z,1.17
2023-03-19T04:01:47.377Z,1.13
2023-03-19T04:04:15.540Z,0.88
2023-03-19T04:06:42.206Z,0.90
2023-03-19T04:09:09.214Z,1.10
2023-03-19T04:11:36.515Z,0.90
2023-03-19T04:14:03.485Z,1.15
2023-03-19T04:16:30.822Z,1.30
2023-03-19T04:18:57.352Z,1.33
2023-03-19T04:21:23.910Z,1.25
2023-03-19T04:23:50.462Z,0.82
2023-03-19T04:26:17.100Z,1.25
2023-03-19T04:28:44.225Z,0.73
2023-03-19T04:31:10.915Z,0.95
2023-03-19T04:33:37.592Z,0.80
2023-03-19T04:36:04.758Z,0.70
2023-03-19T04:38:32.027Z,1.23
2023-03-19T04:40:58.872Z,0.60
2023-03-19T04:43:25.647Z,0.50
2023-03-19T04:45:52.500Z,0.40
2023-03-19T04:48:19.041Z,0.40
2023-03-19T04:50:47.251Z,0.65
2023-03-19T04:53:13.909Z,0.40
2023-03-19T04:55:41.058Z,0.70
2023-03-19T04:58:09.168Z,0.50
2023-03-19T05:00:36.283Z,0.30
2023-03-19T05:03:02.822Z,0.40
2023-03-19T05:05:29.414Z,0.60
2023-03-19T05:07:57.436Z,0.45
2023-03-19T05:10:24.120Z,0.60
2023-03-19T05:12:50.697Z,0.73
2023-03-19T05:15:17.663Z,0.77
2023-03-19T05:17:44.173Z,0.68
2023-03-19T05:20:12.697Z,0.60
2023-03-19T05:22:39.278Z,0.80
2023-03-19T05:25:06.901Z,0.50
2023-03-19T05:27:33.516Z,0.50
2023-03-19T05:30:01.511Z,0.90
2023-03-19T05:32:28.735Z,0.70
2023-03-19T05:34:55.273Z,0.55
2023-03-19T05:37:21.991Z,0.70
2023-03-19T05:39:48.519Z,0.80
2023-03-19T05:42:15.641Z,0.70
2023-03-19T05:44:42.387Z,1.05
2023-03-19T05:47:10.406Z,1.08
2023-03-19T05:49:36.944Z,1.00
2023-03-19T05:52:03.568Z,0.80
2023-03-19T05:54:30.274Z,1.40
2023-03-19T05:56:56.879Z,2.08
2023-03-19T05:59:23.420Z,1.15
2023-03-19T06:01:50.766Z,1.00
2023-03-19T06:04:17.418Z,0.80
2023-03-19T06:06:43.986Z,0.88
2023-03-19T06:09:10.485Z,1.00
2023-03-19T06:11:39.554Z,0.95
2023-03-19T06:14:06.892Z,0.68
2023-03-19T06:16:33.461Z,0.80
2023-03-19T06:19:00.144Z,0.82
2023-03-19T06:21:29.710Z,0.60
2023-03-19T06:23:56.702Z,0.90
2023-03-19T06:26:23.772Z,0.70
2023-03-19T06:28:51.074Z,1.42
2023-03-19T06:31:18.156Z,1.20
2023-03-19T06:33:44.921Z,0.88
2023-03-19T06:36:11.624Z,1.05
2023-03-19T06:38:38.159Z,1.02
2023-03-19T06:41:04.930Z,1.27
2023-03-19T06:43:31.916Z,0.80
2023-03-19T06:45:58.512Z,0.80
2023-03-19T06:48:25.145Z,0.50
2023-03-19T06:50:51.699Z,0.98
2023-03-19T06:53:18.218Z,0.93
2023-03-19T06:55:46.867Z,0.75
2023-03-19T06:58:13.506Z,0.52
2023-03-19T07:00:40.082Z,0.77
2023-03-19T07:03:07.553Z,0.80
2023-03-19T07:05:34.160Z,0.60
2023-03-19T07:08:00.826Z,0.95
2023-03-19T07:10:27.473Z,0.68
2023-03-19T07:12:54.719Z,0.63
2023-03-19T07:15:21.675Z,0.65
2023-03-19T07:17:49.060Z,0.60
2023-03-19T07:20:16.220Z,0.60
2023-03-19T07:22:42.771Z,0.70
2023-03-19T07:25:09.646Z,0.50
2023-03-19T07:27:36.166Z,0.50
2023-03-19T07:30:02.907Z,0.50
2023-03-19T07:32:29.442Z,0.90
2023-03-19T07:34:56.190Z,0.40
2023-03-19T07:37:22.799Z,0.30
2023-03-19T07:39:49.372Z,0.57
2023-03-19T07:42:15.958Z,0.30
2023-03-19T07:44:42.464Z,0.50
2023-03-19T07:47:22.538Z,0.43
2023-03-19T07:49:52.892Z,0.43
2023-03-19T07:52:19.408Z,0.20
2023-03-19T07:54:46.013Z,0.35
2023-03-19T07:57:12.633Z,0.50
2023-03-19T07:59:39.210Z,0.77
2023-03-19T08:02:06.479Z,0.60
2023-03-19T08:04:33.153Z,0.60
2023-03-19T08:07:00.671Z,0.30
2023-03-19T08:09:28.139Z,0.40
2023-03-19T08:11:54.804Z,0.50
2023-03-19T08:14:22.626Z,0.60
2023-03-19T08:16:49.898Z,0.65
2023-03-19T08:19:16.952Z,0.80
2023-03-19T08:21:43.498Z,0.40
2023-03-19T08:24:10.009Z,0.70
2023-03-19T08:26:37.652Z,0.60
2023-03-19T08:29:04.268Z,0.77
2023-03-19T08:31:30.822Z,0.70
2023-03-19T08:34:00.139Z,1.17
2023-03-19T08:36:27.521Z,0.82
2023-03-19T08:38:54.926Z,0.90
2023-03-19T08:41:22.446Z,0.57
2023-03-19T08:43:49.318Z,0.90
2023-03-19T08:46:16.431Z,0.63
2023-03-19T08:48:43.047Z,0.70
2023-03-19T08:51:09.993Z,1.05
2023-03-19T08:53:37.804Z,0.63
2023-03-19T08:56:07.940Z,0.40
2023-03-19T08:58:35.177Z,0.70
2023-03-19T09:01:07.800Z,0.70
2023-03-19T09:03:34.833Z,0.60
2023-03-19T09:06:02.870Z,0.50
2023-03-19T09:08:31.190Z,0.50
2023-03-19T09:10:58.963Z,0.57
2023-03-19T09:13:26.164Z,0.30
2023-03-19T09:15:53.089Z,0.35
2023-03-19T09:18:26.093Z,0.40
2023-03-19T09:20:54.162Z,0.60
2023-03-19T09:23:21.848Z,0.40
2023-03-19T09:25:48.986Z,0.52
2023-03-19T09:28:16.074Z,0.30
2023-03-19T09:30:45.426Z,0.38
2023-03-19T09:33:12.059Z,0.50
2023-03-19T09:35:39.836Z,0.40
2023-03-19T09:38:07.028Z,0.57
2023-03-19T09:40:36.587Z,0.22
2023-03-19T09:43:08.603Z,0.30
2023-03-19T09:45:35.829Z,0.40
2023-03-19T09:48:07.853Z,0.20
2023-03-19T09:50:35.134Z,0.45
2023-03-19T09:53:17.005Z,0.90
2023-03-19T09:55:54.219Z,0.47
2023-03-19T09:58:24.534Z,0.40
2023-03-19T10:00:53.280Z,0.73
2023-03-19T10:03:25.617Z,0.30
2023-03-19T10:06:13.524Z,0.50
2023-03-19T10:08:47.864Z,0.40
2023-03-19T10:11:16.982Z,0.20
2023-03-19T10:13:55.529Z,0.30
2023-03-19T10:16:26.270Z,0.20
2023-03-19T10:18:58.490Z,0.30
2023-03-19T10:21:34.777Z,0.22
2023-03-19T10:24:10.865Z,0.20
2023-03-19T10:26:37.381Z,0.20
2023-03-19T10:29:06.783Z,0.13
2023-03-19T10:32:10.649Z,0.10
2023-03-19T10:34:41.805Z,0.10
2023-03-19T10:37:17.555Z,0.10
2023-03-19T10:39:46.284Z,0.20
2023-03-19T10:42:50.058Z,0.20
2023-03-19T10:45:31.778Z,0.20
2023-03-19T10:48:00.449Z,0.45
2023-03-19T10:50:35.686Z,0.20
2023-03-19T10:53:14.540Z,0.10
2023-03-19T10:56:00.942Z,0.45
2023-03-19T10:58:29.803Z,2.20
2023-03-19T11:00:59.292Z,0.50
2023-03-19T11:03:34.854Z,0.43
2023-03-19T11:06:19.885Z,0.30
2023-03-19T11:08:55.895Z,0.52
2023-03-19T11:11:26.467Z,0.20
2023-03-19T11:13:53.304Z,0.20
2023-03-19T11:16:19.937Z,0.30
2023-03-19T11:18:49.439Z,0.30
2023-03-19T11:21:29.377Z,0.20
2023-03-19T11:24:04.264Z,0.30
2023-03-19T11:26:31.366Z,0.40
2023-03-19T11:29:04.260Z,0.30
2023-03-19T11:31:39.171Z,0.10
2023-03-19T11:34:51.377Z,0.20
2023-03-19T11:37:48.081Z,0.20
2023-03-19T11:40:25.414Z,0.30
2023-03-19T11:43:03.883Z,0.90
2023-03-19T11:45:45.423Z,0.50
2023-03-19T11:48:39.525Z,0.38
2023-03-19T11:51:05.966Z,0.20
2023-03-19T11:53:53.365Z,0.10
2023-03-19T11:56:55.656Z,0.40
2023-03-19T11:59:41.172Z,0.20
2023-03-19T12:02:16.734Z,0.28
2023-03-19T12:04:49.438Z,0.20
2023-03-19T12:07:24.672Z,0.40
2023-03-19T12:10:17.713Z,0.50
2023-03-19T12:13:00.788Z,0.70
2023-03-19T12:15:37.462Z,0.50
2023-03-19T12:18:16.482Z,0.20
2023-03-19T12:21:30.779Z,0.30
2023-03-19T12:24:11.615Z,0.55
2023-03-19T12:26:43.915Z,0.10
2023-03-19T12:29:24.461Z,0.30
2023-03-19T12:32:02.623Z,0.20
2023-03-19T12:34:41.651Z,0.28
2023-03-19T12:37:34.361Z,0.13
2023-03-19T12:40:04.159Z,0.28
2023-03-19T12:42:37.808Z,0.10
2023-03-19T12:45:15.351Z,0.00
2023-03-19T12:47:44.349Z,0.10
2023-03-19T12:50:15.392Z,0.10
2023-03-19T12:52:46.734Z,0.10
2023-03-19T12:55:43.737Z,0.13
2023-03-19T12:58:34.891Z,0.20
2023-03-19T13:01:09.155Z,0.20
2023-03-19T13:03:57.006Z,0.20
2023-03-19T13:06:28.557Z,0.10
2023-03-19T13:09:46.329Z,0.20
2023-03-19T13:12:26.027Z,0.10
2023-03-19T13:14:56.249Z,0.30
2023-03-19T13:17:28.525Z,0.10
2023-03-19T13:19:57.056Z,0.10
2023-03-19T13:22:32.892Z,0.10
2023-03-19T13:25:01.915Z,0.00
2023-03-19T13:27:34.074Z,0.22
2023-03-19T13:30:08.255Z,0.17
2023-03-19T13:32:45.894Z,0.10
2023-03-19T13:35:18.590Z,0.10
2023-03-19T13:37:55.942Z,0.10
2023-03-19T13:40:44.547Z,0.10
2023-03-19T13:43:30.538Z,0.20
2023-03-19T13:46:12.831Z,0.10
2023-03-19T13:49:10.008Z,0.10
2023-03-19T13:51:36.708Z,0.10
2023-03-19T13:54:13.018Z,0.20
2023-03-19T13:57:08.839Z,0.20
2023-03-19T13:59:37.730Z,0.17
2023-03-19T14:02:25.430Z,0.10
2023-03-19T14:05:02.437Z,0.20
2023-03-19T14:07:37.032Z,0.22
2023-03-19T14:10:15.306Z,0.10
2023-03-19T14:12:44.195Z,0.17
2023-03-19T14:15:10.664Z,0.20
2023-03-19T14:18:01.673Z,0.20
2023-03-19T14:20:39.285Z,0.10
2023-03-19T14:23:11.347Z,0.10
2023-03-19T14:26:19.638Z,0.20
2023-03-19T14:28:52.984Z,0.20
2023-03-19T14:31:22.804Z,0.00
2023-03-19T14:33:52.371Z,0.05
2023-03-19T14:36:22.028Z,0.22
2023-03-19T14:38:59.150Z,0.10
2023-03-19T14:41:28.767Z,0.30
2023-03-19T14:43:58.373Z,0.10
2023-03-19T14:46:30.973Z,0.08
2023-03-19T14:49:36.304Z,0.10
2023-03-19T14:52:25.557Z,0.00
2023-03-19T14:55:09.600Z,0.10
2023-03-19T14:57:36.337Z,0.10
2023-03-19T15:00:07.408Z,0.10
2023-03-19T15:02:38.763Z,0.00
2023-03-19T15:05:38.230Z,0.10
2023-03-19T15:08:12.403Z,0.00
2023-03-19T15:11:17.155Z,0.20
2023-03-19T15:14:17.708Z,0.13
2023-03-19T15:17:21.413Z,0.22
2023-03-19T15:19:48.192Z,0.50
2023-03-19T15:22:19.380Z,0.25
2023-03-19T15:24:47.365Z,0.15
2023-03-19T15:27:32.378Z,0.20
2023-03-19T15:30:09.640Z,0.17
2023-03-19T15:33:02.839Z,0.50
2023-03-19T15:35:36.401Z,0.28
2023-03-19T15:38:09.115Z,0.30
2023-03-19T15:40:37.352Z,0.30
2023-03-19T15:43:04.294Z,0.20
2023-03-19T15:45:34.032Z,0.20
2023-03-19T15:48:17.243Z,0.30
2023-03-19T15:50:48.500Z,0.30
2023-03-19T15:53:21.251Z,0.47
2023-03-19T15:55:52.965Z,0.30
2023-03-19T15:58:29.305Z,0.30
2023-03-19T16:00:56.811Z,0.30
2023-03-19T16:03:37.718Z,0.20
2023-03-19T16:06:07.837Z,0.50
2023-03-19T16:08:34.504Z,1.50
2023-03-19T16:11:34.654Z,0.20
2023-03-19T16:14:11.644Z,0.28
2023-03-19T16:16:40.607Z,0.20
2023-03-19T16:19:29.659Z,0.40
2023-03-19T16:21:56.872Z,0.40
2023-03-19T16:24:37.555Z,0.35
2023-03-19T16:27:12.613Z,0.20
2023-03-19T16:29:44.788Z,0.20
2023-03-19T16:32:11.459Z,0.40
2023-03-19T16:34:52.085Z,0.40
2023-03-19T16:37:40.121Z,0.20
2023-03-19T16:40:13.154Z,0.30
2023-03-19T16:42:42.796Z,0.20
2023-03-19T16:45:30.060Z,0.30
2023-03-19T16:47:58.564Z,0.10
2023-03-19T16:50:43.589Z,0.15
2023-03-19T16:53:30.002Z,0.30
2023-03-19T16:55:58.972Z,0.40
2023-03-19T16:58:31.555Z,0.30
2023-03-19T17:00:59.176Z,0.50
2023-03-19T17:03:26.170Z,0.30
2023-03-19T17:05:53.201Z,0.30
2023-03-19T17:08:22.136Z,0.45
2023-03-19T17:10:52.473Z,0.38
2023-03-19T17:13:29.796Z,0.40
2023-03-19T17:15:59.414Z,0.35
2023-03-19T17:18:29.403Z,0.38
2023-03-19T17:21:06.416Z,0.30
2023-03-19T17:23:34.569Z,0.30
2023-03-19T17:26:03.099Z,0.20
2023-03-19T17:28:32.385Z,0.50
2023-03-19T17:30:59.016Z,0.20
2023-03-19T17:33:28.383Z,0.30
2023-03-19T17:35:57.698Z,0.40
2023-03-19T17:38:33.273Z,0.20
2023-03-19T17:41:00.182Z,0.38
2023-03-19T17:43:26.701Z,0.55
2023-03-19T17:45:55.498Z,0.30
2023-03-19T17:48:25.739Z,0.82
2023-03-19T17:50:57.834Z,0.50
2023-03-19T17:53:24.820Z,0.40
2023-03-19T17:55:51.316Z,0.35
2023-03-19T17:58:20.942Z,0.40
2023-03-19T18:00:49.374Z,0.60
2023-03-19T18:03:18.644Z,0.80
2023-03-19T18:05:45.690Z,0.70
2023-03-19T18:08:18.359Z,0.55
2023-03-19T18:10:45.423Z,0.43
2023-03-19T18:13:12.083Z,0.40
2023-03-19T18:15:42.369Z,0.55
2023-03-19T18:18:16.713Z,0.80
2023-03-19T18:20:44.228Z,0.98
2023-03-19T18:23:11.725Z,0.85
2023-03-19T18:25:38.427Z,0.70
2023-03-19T18:28:05.524Z,0.60
2023-03-19T18:30:35.142Z,0.70
2023-03-19T18:33:05.543Z,0.60
2023-03-19T18:35:39.326Z,0.70
2023-03-19T18:38:14.848Z,0.73
2023-03-19T18:40:41.360Z,1.52
2023-03-19T18:43:10.140Z,0.90
2023-03-19T18:45:37.442Z,1.00
2023-03-19T18:48:16.648Z,1.08
2023-03-19T18:50:43.251Z,0.73
2023-03-19T18:53:11.434Z,2.03
2023-03-19T18:55:37.990Z,0.88
2023-03-19T18:58:05.440Z,0.60
2023-03-19T19:00:35.057Z,0.60
2023-03-19T19:03:02.836Z,0.60
2023-03-19T19:05:31.514Z,0.90
2023-03-19T19:08:02.866Z,0.88
2023-03-19T19:10:36.520Z,0.75
2023-03-19T19:13:03.499Z,0.88
2023-03-19T19:15:35.976Z,1.10
2023-03-19T19:18:31.578Z,1.08
2023-03-19T19:20:58.860Z,1.52
2023-03-19T19:23:30.424Z,1.00
2023-03-19T19:25:57.134Z,0.77
2023-03-19T19:28:28.062Z,0.90
2023-03-19T19:30:57.482Z,0.82
2023-03-19T19:33:28.011Z,0.90
2023-03-19T19:35:55.930Z,0.60
2023-03-19T19:38:22.639Z,0.75
2023-03-19T19:40:52.676Z,0.60
2023-03-19T19:43:22.847Z,0.47
2023-03-19T19:45:52.728Z,0.73
2023-03-19T19:48:25.482Z,0.80
2023-03-19T19:50:53.586Z,0.65
2023-03-19T19:53:20.809Z,0.60
2023-03-19T19:55:47.800Z,0.60
2023-03-19T19:58:32.312Z,0.90
2023-03-19T20:01:04.623Z,0.80
2023-03-19T20:03:33.316Z,0.80
2023-03-19T20:06:00.697Z,0.75
2023-03-19T20:08:28.561Z,0.93
2023-03-19T20:10:55.296Z,1.00
2023-03-19T20:13:26.218Z,0.90
2023-03-19T20:15:55.824Z,0.73
2023-03-19T20:18:24.633Z,0.70
2023-03-19T20:20:52.944Z,0.70
2023-03-19T20:23:20.855Z,1.08
2023-03-19T20:25:47.860Z,0.70
2023-03-19T20:28:23.935Z,0.77
2023-03-19T20:30:52.144Z,0.90
2023-03-19T20:33:19.404Z,0.60
2023-03-19T20:35:46.715Z,0.95
2023-03-19T20:38:14.565Z,1.05
2023-03-19T20:40:45.862Z,1.10
2023-03-19T20:43:34.670Z,0.63
2023-03-19T20:46:05.079Z,0.52
2023-03-19T20:48:33.752Z,0.52
2023-03-19T20:51:02.084Z,0.80
2023-03-19T20:53:28.765Z,0.77
2023-03-19T20:55:55.335Z,1.00
2023-03-19T20:58:35.110Z,0.80
2023-03-19T21:01:02.772Z,0.50
2023-03-19T21:03:32.081Z,0.73
2023-03-19T21:06:04.912Z,0.70
2023-03-19T21:08:32.511Z,0.50
2023-03-19T21:10:59.760Z,0.50
2023-03-19T21:13:27.273Z,0.75
2023-03-19T21:15:54.257Z,0.60
2023-03-19T21:18:21.372Z,0.98
2023-03-19T21:20:53.904Z,0.63
2023-03-19T21:23:23.586Z,0.80
2023-03-19T21:25:50.283Z,0.35
2023-03-19T21:28:28.042Z,0.50
2023-03-19T21:30:54.717Z,0.70
2023-03-19T21:33:32.883Z,0.50
2023-03-19T21:36:01.343Z,0.70
2023-03-19T21:38:28.612Z,0.90
2023-03-19T21:40:59.074Z,0.43
2023-03-19T21:43:52.581Z,0.60
2023-03-19T21:46:24.685Z,0.57
2023-03-19T21:48:52.705Z,0.60
2023-03-19T21:51:19.414Z,0.63
2023-03-19T21:53:46.028Z,0.50
2023-03-19T21:56:25.048Z,0.60
2023-03-19T21:58:52.485Z,0.50
2023-03-19T22:01:24.599Z,0.40
2023-03-19T22:03:57.618Z,0.47
2023-03-19T22:06:25.219Z,0.50
2023-03-19T22:08:53.976Z,0.70
2023-03-19T22:11:28.445Z,0.40
2023-03-19T22:14:04.175Z,0.60
2023-03-19T22:16:32.340Z,0.77
2023-03-19T22:18:59.222Z,0.80
2023-03-19T22:21:25.755Z,0.60
2023-03-19T22:23:52.339Z,1.40
2023-03-19T22:26:25.930Z,0.60
2023-03-19T22:28:53.053Z,0.93
2023-03-19T22:31:20.201Z,0.50
2023-03-19T22:33:48.758Z,0.40
2023-03-19T22:36:15.846Z,0.60
2023-03-19T22:38:44.940Z,0.50
2023-03-19T22:41:32.239Z,0.52
2023-03-19T22:44:00.890Z,0.60
2023-03-19T22:46:28.199Z,0.40
2023-03-19T22:48:55.713Z,0.50
2023-03-19T22:51:24.330Z,0.60
2023-03-19T22:53:51.679Z,0.63
2023-03-19T22:56:20.024Z,0.52
2023-03-19T22:58:47.674Z,0.70
2023-03-19T23:01:20.690Z,0.50
2023-03-19T23:03:48.501Z,0.40
2023-03-19T23:06:29.311Z,0.50
2023-03-19T23:08:56.780Z,0.47
2023-03-19T23:11:24.372Z,0.50
2023-03-19T23:13:51.174Z,0.75
2023-03-19T23:16:23.617Z,0.70
2023-03-19T23:18:51.479Z,0.55
2023-03-19T23:21:19.215Z,0.50
2023-03-19T23:23:46.332Z,1.02
2023-03-19T23:26:23.350Z,0.60
2023-03-19T23:28:50.045Z,0.80
2023-03-19T23:31:16.666Z,0.90
2023-03-19T23:33:46.096Z,0.60
2023-03-19T23:36:12.875Z,0.50
2023-03-19T23:38:39.449Z,0.60
2023-03-19T23:41:07.380Z,0.50
2023-03-19T23:43:34.652Z,0.60
2023-03-19T23:46:02.369Z,0.60
2023-03-19T23:48:35.314Z,0.50
2023-03-19T23:51:02.633Z,0.60
2023-03-19T23:53:30.238Z,0.70
2023-03-19T23:56:05.254Z,0.52
2023-03-19T23:58:43.172Z,0.60
